sensor_id;sensor_type;location;lat;lon;timestamp;pressure;altitude;pressure_sealevel;temperature;humidity
3250;BME280;1637;42.020;23.992;2023-06-10T00:00:40;92512.88;;;14.75;100.00
3250;BME280;1637;42.020;23.992;2023-06-10T00:03:07;92474.72;;;15.11;100.00
3250;BME280;1637;42.020;23.992;2023-06-10T00:05:35;92515.41;;;15.04;100.00
3250;BME280;1637;42.020;23.992;2023-06-10T00:08:04;92520.25;;;14.97;100.00
3250;BME280;1637;42.020;23.992;2023-06-10T00:10:33;92517.44;;;15.13;100.00
3250;BME280;1637;42.020;23.992;2023-06-10T00:13:00;92523.16;;;15.15;100.00
3250;BME280;1637;42.020;23.992;2023-06-10T00:15:28;92517.81;;;15.24;100.00
3250;BME280;1637;42.020;23.992;2023-06-10T00:17:54;92491.22;;;15.13;100.00
3250;BME280;1637;42.020;23.992;2023-06-10T00:20:21;92479.78;;;15.09;100.00
3250;BME280;1637;42.020;23.992;2023-06-10T00:22:50;92529.84;;;15.10;100.00
3250;BME280;1637;42.020;23.992;2023-06-10T00:25:17;92520.72;;;14.95;100.00
3250;BME280;1637;42.020;23.992;2023-06-10T00:27:44;92508.53;;;15.25;100.00
3250;BME280;1637;42.020;23.992;2023-06-10T00:30:11;92513.91;;;15.38;100.00
3250;BME280;1637;42.020;23.992;2023-06-10T00:32:38;92487.34;;;15.02;100.00
3250;BME280;1637;42.020;23.992;2023-06-10T00:35:06;92513.81;;;14.82;100.00
3250;BME280;1637;42.020;23.992;2023-06-10T00:37:33;92514.91;;;14.59;100.00
3250;BME280;1637;42.020;23.992;2023-06-10T00:40:04;92534.97;;;14.45;100.00
3250;BME280;1637;42.020;23.992;2023-06-10T00:42:31;92508.22;;;14.25;100.00
3250;BME280;1637;42.020;23.992;2023-06-10T00:44:57;92511.00;;;14.09;100.00
3250;BME280;1637;42.020;23.992;2023-06-10T00:47:25;92508.97;;;14.13;100.00
3250;BME280;1637;42.020;23.992;2023-06-10T00:49:53;92509.28;;;14.15;100.00
3250;BME280;1637;42.020;23.992;2023-06-10T00:52:22;92506.81;;;14.08;100.00
3250;BME280;1637;42.020;23.992;2023-06-10T00:54:51;92508.41;;;14.18;100.00
3250;BME280;1637;42.020;23.992;2023-06-10T00:57:19;92506.72;;;14.24;100.00
3250;BME280;1637;42.020;23.992;2023-06-10T00:59:48;92512.56;;;14.48;100.00
3250;BME280;1637;42.020;23.992;2023-06-10T01:02:15;92510.81;;;14.29;100.00
3250;BME280;1637;42.020;23.992;2023-06-10T01:04:43;92509.06;;;14.35;100.00
3250;BME280;1637;42.020;23.992;2023-06-10T01:07:14;92515.88;;;14.39;100.00
3250;BME280;1637;42.020;23.992;2023-06-10T01:09:51;92510.47;;;14.27;100.00
3250;BME280;1637;42.020;23.992;2023-06-10T01:12:26;92516.75;;;14.62;100.00
3250;BME280;1637;42.020;23.992;2023-06-10T01:14:55;92522.03;;;14.65;100.00
3250;BME280;1637;42.020;23.992;2023-06-10T01:17:23;92509.19;;;14.82;100.00
3250;BME280;1637;42.020;23.992;2023-06-10T01:19:56;92506.91;;;14.81;100.00
3250;BME280;1637;42.020;23.992;2023-06-10T01:22:25;92508.00;;;14.83;100.00
3250;BME280;1637;42.020;23.992;2023-06-10T01:24:53;92510.94;;;14.63;100.00
3250;BME280;1637;42.020;23.992;2023-06-10T01:27:26;92485.47;;;13.88;100.00
3250;BME280;1637;42.020;23.992;2023-06-10T01:29:59;92503.81;;;14.31;100.00
3250;BME280;1637;42.020;23.992;2023-06-10T01:32:33;92509.28;;;14.15;100.00
3250;BME280;1637;42.020;23.992;2023-06-10T01:35:02;92500.34;;;14.18;100.00
3250;BME280;1637;42.020;23.992;2023-06-10T01:37:33;92472.53;;;14.21;100.00
3250;BME280;1637;42.020;23.992;2023-06-10T01:40:00;92501.88;;;14.44;100.00
3250;BME280;1637;42.020;23.992;2023-06-10T01:42:31;92496.59;;;14.28;100.00
3250;BME280;1637;42.020;23.992;2023-06-10T01:44:58;92506.09;;;14.46;100.00
3250;BME280;1637;42.020;23.992;2023-06-10T01:47:25;92502.75;;;14.54;100.00
3250;BME280;1637;42.020;23.992;2023-06-10T01:49:52;92506.53;;;14.44;100.00
3250;BME280;1637;42.020;23.992;2023-06-10T01:52:19;92498.09;;;14.29;100.00
3250;BME280;1637;42.020;23.992;2023-06-10T01:54:47;92499.03;;;14.35;100.00
3250;BME280;1637;42.020;23.992;2023-06-10T01:57:14;92493.25;;;14.12;100.00
3250;BME280;1637;42.020;23.992;2023-06-10T01:59:41;92503.78;;;14.06;100.00
3250;BME280;1637;42.020;23.992;2023-06-10T02:02:10;92512.16;;;13.95;100.00
3250;BME280;1637;42.020;23.992;2023-06-10T02:04:36;92495.59;;;14.09;100.00
3250;BME280;1637;42.020;23.992;2023-06-10T02:07:04;92488.06;;;13.92;100.00
3250;BME280;1637;42.020;23.992;2023-06-10T02:09:31;92499.00;;;13.85;100.00
3250;BME280;1637;42.020;23.992;2023-06-10T02:12:02;92503.97;;;13.99;100.00
3250;BME280;1637;42.020;23.992;2023-06-10T02:14:28;92501.91;;;13.77;100.00
3250;BME280;1637;42.020;23.992;2023-06-10T02:16:55;92500.06;;;13.74;100.00
3250;BME280;1637;42.020;23.992;2023-06-10T02:19:22;92502.53;;;13.69;100.00
3250;BME280;1637;42.020;23.992;2023-06-10T02:21:50;92495.16;;;13.98;100.00
3250;BME280;1637;42.020;23.992;2023-06-10T02:24:17;92493.53;;;13.88;100.00
3250;BME280;1637;42.020;23.992;2023-06-10T02:26:44;92499.78;;;13.98;100.00
3250;BME280;1637;42.020;23.992;2023-06-10T02:29:14;92497.41;;;13.87;100.00
3250;BME280;1637;42.020;23.992;2023-06-10T02:31:41;92494.22;;;13.63;100.00
3250;BME280;1637;42.020;23.992;2023-06-10T02:34:08;92499.00;;;13.43;100.00
3250;BME280;1637;42.020;23.992;2023-06-10T02:36:35;92499.09;;;13.81;100.00
3250;BME280;1637;42.020;23.992;2023-06-10T02:39:02;92509.59;;;14.04;100.00
3250;BME280;1637;42.020;23.992;2023-06-10T02:41:29;92503.56;;;14.00;100.00
3250;BME280;1637;42.020;23.992;2023-06-10T02:43:56;92496.94;;;13.76;100.00
3250;BME280;1637;42.020;23.992;2023-06-10T02:46:24;92501.41;;;13.54;100.00
3250;BME280;1637;42.020;23.992;2023-06-10T02:48:51;92505.66;;;13.67;100.00
3250;BME280;1637;42.020;23.992;2023-06-10T02:51:18;92510.63;;;13.82;100.00
3250;BME280;1637;42.020;23.992;2023-06-10T02:53:46;92509.22;;;13.77;100.00
3250;BME280;1637;42.020;23.992;2023-06-10T02:56:16;92511.06;;;13.80;100.00
3250;BME280;1637;42.020;23.992;2023-06-10T02:58:43;92523.31;;;13.68;100.00
3250;BME280;1637;42.020;23.992;2023-06-10T03:01:10;92505.00;;;13.34;100.00
3250;BME280;1637;42.020;23.992;2023-06-10T03:03:38;92507.31;;;13.49;100.00
3250;BME280;1637;42.020;23.992;2023-06-10T03:06:07;92505.19;;;13.56;100.00
3250;BME280;1637;42.020;23.992;2023-06-10T03:08:35;92508.28;;;13.84;100.00
3250;BME280;1637;42.020;23.992;2023-06-10T03:11:03;92507.75;;;14.14;100.00
3250;BME280;1637;42.020;23.992;2023-06-10T03:13:30;92513.25;;;13.98;100.00
3250;BME280;1637;42.020;23.992;2023-06-10T03:15:57;92511.47;;;14.33;100.00
3250;BME280;1637;42.020;23.992;2023-06-10T03:18:26;92506.38;;;14.35;100.00
3250;BME280;1637;42.020;23.992;2023-06-10T03:20:54;92503.38;;;14.33;100.00
3250;BME280;1637;42.020;23.992;2023-06-10T03:23:21;92515.22;;;14.35;100.00
3250;BME280;1637;42.020;23.992;2023-06-10T03:25:48;92510.91;;;14.25;100.00
3250;BME280;1637;42.020;23.992;2023-06-10T03:28:15;92515.97;;;14.36;100.00
3250;BME280;1637;42.020;23.992;2023-06-10T03:30:42;92504.78;;;14.25;100.00
3250;BME280;1637;42.020;23.992;2023-06-10T03:33:08;92505.72;;;14.18;100.00
3250;BME280;1637;42.020;23.992;2023-06-10T03:35:35;92510.28;;;14.34;100.00
3250;BME280;1637;42.020;23.992;2023-06-10T03:38:03;92510.41;;;14.43;100.00
3250;BME280;1637;42.020;23.992;2023-06-10T03:40:30;92515.22;;;14.35;100.00
3250;BME280;1637;42.020;23.992;2023-06-10T03:42:57;92503.59;;;14.13;100.00
3250;BME280;1637;42.020;23.992;2023-06-10T03:45:24;92497.66;;;14.31;100.00
3250;BME280;1637;42.020;23.992;2023-06-10T03:47:53;92506.38;;;14.35;100.00
3250;BME280;1637;42.020;23.992;2023-06-10T03:50:21;92504.44;;;14.35;100.00
3250;BME280;1637;42.020;23.992;2023-06-10T03:52:49;92500.34;;;14.18;100.00
3250;BME280;1637;42.020;23.992;2023-06-10T03:55:17;92505.59;;;13.96;100.00
3250;BME280;1637;42.020;23.992;2023-06-10T03:57:47;92504.06;;;13.83;100.00
3250;BME280;1637;42.020;23.992;2023-06-10T04:00:14;92499.78;;;13.85;100.00
3250;BME280;1637;42.020;23.992;2023-06-10T04:02:41;92500.38;;;13.64;100.00
3250;BME280;1637;42.020;23.992;2023-06-10T04:05:11;92506.31;;;13.71;100.00
3250;BME280;1637;42.020;23.992;2023-06-10T04:07:38;92510.19;;;13.70;100.00
3250;BME280;1637;42.020;23.992;2023-06-10T04:10:07;92503.63;;;13.71;100.00
3250;BME280;1637;42.020;23.992;2023-06-10T04:12:35;92509.97;;;13.77;100.00
3250;BME280;1637;42.020;23.992;2023-06-10T04:15:02;92497.38;;;13.74;100.00
3250;BME280;1637;42.020;23.992;2023-06-10T04:17:29;92510.44;;;13.89;100.00
3250;BME280;1637;42.020;23.992;2023-06-10T04:19:56;92515.66;;;14.21;100.00
3250;BME280;1637;42.020;23.992;2023-06-10T04:22:24;92527.28;;;14.18;100.00
3250;BME280;1637;42.020;23.992;2023-06-10T04:24:51;92523.75;;;14.59;100.00
3250;BME280;1637;42.020;23.992;2023-06-10T04:27:17;92523.13;;;14.68;100.00
3250;BME280;1637;42.020;23.992;2023-06-10T04:29:46;92522.69;;;14.44;100.00
3250;BME280;1637;42.020;23.992;2023-06-10T04:32:13;92522.81;;;14.53;100.00
3250;BME280;1637;42.020;23.992;2023-06-10T04:34:39;92523.00;;;14.59;100.00
3250;BME280;1637;42.020;23.992;2023-06-10T04:37:06;92518.13;;;14.92;100.00
3250;BME280;1637;42.020;23.992;2023-06-10T04:39:33;92515.03;;;15.28;100.00
3250;BME280;1637;42.020;23.992;2023-06-10T04:42:00;92513.50;;;15.27;100.00
3250;BME280;1637;42.020;23.992;2023-06-10T04:44:27;92520.13;;;15.47;100.00
3250;BME280;1637;42.020;23.992;2023-06-10T04:46:56;92524.94;;;15.65;100.00
3250;BME280;1637;42.020;23.992;2023-06-10T04:49:22;92516.28;;;15.70;100.00
3250;BME280;1637;42.020;23.992;2023-06-10T04:51:49;92513.63;;;15.79;100.00
3250;BME280;1637;42.020;23.992;2023-06-10T04:54:16;92510.03;;;16.04;100.00
3250;BME280;1637;42.020;23.992;2023-06-10T04:56:43;92504.72;;;16.23;100.00
3250;BME280;1637;42.020;23.992;2023-06-10T04:59:10;92522.38;;;17.35;100.00
3250;BME280;1637;42.020;23.992;2023-06-10T05:01:37;92516.41;;;18.64;92.80
3250;BME280;1637;42.020;23.992;2023-06-10T05:04:05;92514.03;;;18.90;85.68
3250;BME280;1637;42.020;23.992;2023-06-10T05:06:32;92518.75;;;20.29;82.09
3250;BME280;1637;42.020;23.992;2023-06-10T05:08:59;92522.88;;;20.69;75.15
3250;BME280;1637;42.020;23.992;2023-06-10T05:11:26;92518.72;;;20.88;73.95
3250;BME280;1637;42.020;23.992;2023-06-10T05:13:53;92514.78;;;20.01;77.31
3250;BME280;1637;42.020;23.992;2023-06-10T05:16:19;92515.91;;;19.94;80.03
3250;BME280;1637;42.020;23.992;2023-06-10T05:18:46;92521.09;;;19.68;80.21
3250;BME280;1637;42.020;23.992;2023-06-10T05:21:14;92511.63;;;18.83;85.93
3250;BME280;1637;42.020;23.992;2023-06-10T05:23:41;92503.09;;;18.24;91.91
3250;BME280;1637;42.020;23.992;2023-06-10T05:26:08;92497.44;;;17.67;97.53
3250;BME280;1637;42.020;23.992;2023-06-10T05:28:36;92487.94;;;17.35;100.00
3250;BME280;1637;42.020;23.992;2023-06-10T05:31:02;92470.19;;;17.16;100.00
3250;BME280;1637;42.020;23.992;2023-06-10T05:33:29;92487.50;;;17.37;100.00
3250;BME280;1637;42.020;23.992;2023-06-10T05:35:56;92493.97;;;17.48;100.00
3250;BME280;1637;42.020;23.992;2023-06-10T05:38:24;92493.22;;;17.57;100.00
3250;BME280;1637;42.020;23.992;2023-06-10T05:40:51;92494.28;;;17.69;100.00
3250;BME280;1637;42.020;23.992;2023-06-10T05:43:18;92494.84;;;18.00;100.00
3250;BME280;1637;42.020;23.992;2023-06-10T05:45:45;92498.75;;;18.08;98.87
3250;BME280;1637;42.020;23.992;2023-06-10T05:48:11;92496.47;;;18.25;97.91
3250;BME280;1637;42.020;23.992;2023-06-10T05:50:39;92502.13;;;18.87;92.98
3250;BME280;1637;42.020;23.992;2023-06-10T05:53:08;92503.72;;;18.94;90.50
3250;BME280;1637;42.020;23.992;2023-06-10T05:55:41;92500.81;;;19.07;91.05
3250;BME280;1637;42.020;23.992;2023-06-10T05:58:08;92502.16;;;19.11;90.85
3250;BME280;1637;42.020;23.992;2023-06-10T06:00:35;92502.47;;;19.04;89.64
3250;BME280;1637;42.020;23.992;2023-06-10T06:03:02;92501.44;;;19.49;87.09
3250;BME280;1637;42.020;23.992;2023-06-10T06:05:29;92496.88;;;19.94;85.03
3250;BME280;1637;42.020;23.992;2023-06-10T06:08:00;92502.66;;;19.87;85.49
3250;BME280;1637;42.020;23.992;2023-06-10T06:10:27;92500.34;;;20.24;82.62
3250;BME280;1637;42.020;23.992;2023-06-10T06:12:55;92498.09;;;19.93;85.88
3250;BME280;1637;42.020;23.992;2023-06-10T06:15:22;92492.25;;;19.85;87.16
3250;BME280;1637;42.020;23.992;2023-06-10T06:17:49;92493.69;;;20.10;84.10
3250;BME280;1637;42.020;23.992;2023-06-10T06:20:18;92492.03;;;19.60;87.69
3250;BME280;1637;42.020;23.992;2023-06-10T06:22:45;92493.31;;;19.88;86.91
3250;BME280;1637;42.020;23.992;2023-06-10T06:25:11;92489.59;;;20.15;85.28
3250;BME280;1637;42.020;23.992;2023-06-10T06:27:38;92499.53;;;20.97;82.13
3250;BME280;1637;42.020;23.992;2023-06-10T06:30:08;92495.44;;;21.22;76.82
3250;BME280;1637;42.020;23.992;2023-06-10T06:32:35;92491.72;;;21.40;76.98
3250;BME280;1637;42.020;23.992;2023-06-10T06:35:01;92495.13;;;21.55;75.60
3250;BME280;1637;42.020;23.992;2023-06-10T06:37:30;92491.75;;;22.95;71.49
3250;BME280;1637;42.020;23.992;2023-06-10T06:39:57;92493.63;;;23.63;67.77
3250;BME280;1637;42.020;23.992;2023-06-10T06:42:24;92490.47;;;23.33;69.04
3250;BME280;1637;42.020;23.992;2023-06-10T06:44:51;92486.16;;;24.45;64.88
3250;BME280;1637;42.020;23.992;2023-06-10T06:47:19;92492.88;;;24.89;62.80
3250;BME280;1637;42.020;23.992;2023-06-10T06:49:46;92492.09;;;25.16;61.27
3250;BME280;1637;42.020;23.992;2023-06-10T06:52:14;92484.91;;;24.46;62.56
3250;BME280;1637;42.020;23.992;2023-06-10T06:54:41;92478.63;;;24.18;65.12
3250;BME280;1637;42.020;23.992;2023-06-10T06:57:08;92482.34;;;24.15;65.43
3250;BME280;1637;42.020;23.992;2023-06-10T06:59:34;92473.22;;;24.46;63.71
3250;BME280;1637;42.020;23.992;2023-06-10T07:02:02;92477.47;;;23.59;66.60
3250;BME280;1637;42.020;23.992;2023-06-10T07:04:30;92477.53;;;23.82;65.93
3250;BME280;1637;42.020;23.992;2023-06-10T07:06:57;92474.63;;;23.43;66.85
3250;BME280;1637;42.020;23.992;2023-06-10T07:09:24;92469.00;;;23.57;67.51
3250;BME280;1637;42.020;23.992;2023-06-10T07:11:51;92472.94;;;24.83;63.67
3250;BME280;1637;42.020;23.992;2023-06-10T07:14:18;92462.22;;;25.13;61.76
3250;BME280;1637;42.020;23.992;2023-06-10T07:16:45;92466.25;;;24.73;63.45
3250;BME280;1637;42.020;23.992;2023-06-10T07:19:13;92464.72;;;24.88;64.46
3250;BME280;1637;42.020;23.992;2023-06-10T07:21:41;92463.94;;;25.21;60.12
3250;BME280;1637;42.020;23.992;2023-06-10T07:24:08;92461.88;;;25.55;57.46
3250;BME280;1637;42.020;23.992;2023-06-10T07:26:35;92462.97;;;25.88;56.34
3250;BME280;1637;42.020;23.992;2023-06-10T07:29:02;92459.34;;;25.63;58.19
3250;BME280;1637;42.020;23.992;2023-06-10T07:31:29;92452.53;;;24.84;60.58
3250;BME280;1637;42.020;23.992;2023-06-10T07:33:56;92451.00;;;24.16;62.65
3250;BME280;1637;42.020;23.992;2023-06-10T07:36:22;92455.22;;;24.06;63.57
3250;BME280;1637;42.020;23.992;2023-06-10T07:38:51;92458.16;;;23.85;65.03
3250;BME280;1637;42.020;23.992;2023-06-10T07:41:17;92446.75;;;23.33;67.25
3250;BME280;1637;42.020;23.992;2023-06-10T07:43:45;92444.13;;;23.02;70.88
3250;BME280;1637;42.020;23.992;2023-06-10T07:46:11;92452.00;;;22.94;71.86
3250;BME280;1637;42.020;23.992;2023-06-10T07:48:38;92446.22;;;23.23;72.62
3250;BME280;1637;42.020;23.992;2023-06-10T07:51:05;92443.50;;;22.81;73.46
3250;BME280;1637;42.020;23.992;2023-06-10T07:53:32;92455.47;;;23.37;71.77
3250;BME280;1637;42.020;23.992;2023-06-10T07:56:00;92459.78;;;24.70;62.94
3250;BME280;1637;42.020;23.992;2023-06-10T07:58:27;92459.03;;;24.70;60.85
3250;BME280;1637;42.020;23.992;2023-06-10T08:00:54;92467.97;;;24.31;60.55
3250;BME280;1637;42.020;23.992;2023-06-10T08:03:20;92481.53;;;23.92;59.91
3250;BME280;1637;42.020;23.992;2023-06-10T08:05:47;92466.72;;;24.32;59.97
3250;BME280;1637;42.020;23.992;2023-06-10T08:08:14;92465.72;;;24.41;59.87
3250;BME280;1637;42.020;23.992;2023-06-10T08:10:41;92464.72;;;24.38;58.62
3250;BME280;1637;42.020;23.992;2023-06-10T08:13:09;92470.13;;;23.99;58.83
3250;BME280;1637;42.020;23.992;2023-06-10T08:15:36;92470.78;;;23.66;58.90
3250;BME280;1637;42.020;23.992;2023-06-10T08:18:03;92473.06;;;23.84;59.71
3250;BME280;1637;42.020;23.992;2023-06-10T08:20:30;92468.03;;;23.72;57.50
3250;BME280;1637;42.020;23.992;2023-06-10T08:22:57;92468.97;;;23.09;60.43
3250;BME280;1637;42.020;23.992;2023-06-10T08:25:24;92465.09;;;22.79;62.28
3250;BME280;1637;42.020;23.992;2023-06-10T08:27:51;92466.75;;;22.39;62.67
3250;BME280;1637;42.020;23.992;2023-06-10T08:30:19;92431.66;;;22.26;61.88
3250;BME280;1637;42.020;23.992;2023-06-10T08:32:46;92456.53;;;22.08;62.94
3250;BME280;1637;42.020;23.992;2023-06-10T08:35:13;92461.25;;;22.08;63.21
3250;BME280;1637;42.020;23.992;2023-06-10T08:37:40;92463.19;;;22.02;63.46
3250;BME280;1637;42.020;23.992;2023-06-10T08:40:08;92463.56;;;22.15;62.79
3250;BME280;1637;42.020;23.992;2023-06-10T08:42:39;92464.41;;;22.01;63.51
3250;BME280;1637;42.020;23.992;2023-06-10T08:45:13;92469.03;;;21.94;63.10
3250;BME280;1637;42.020;23.992;2023-06-10T08:47:45;92462.47;;;21.81;66.56
3250;BME280;1637;42.020;23.992;2023-06-10T08:50:12;92467.41;;;22.60;65.35
3250;BME280;1637;42.020;23.992;2023-06-10T08:52:43;92464.72;;;22.34;66.05
3250;BME280;1637;42.020;23.992;2023-06-10T08:55:14;92464.88;;;22.88;64.62
3250;BME280;1637;42.020;23.992;2023-06-10T08:57:42;92465.63;;;22.88;63.34
3250;BME280;1637;42.020;23.992;2023-06-10T09:00:10;92462.41;;;23.27;63.83
3250;BME280;1637;42.020;23.992;2023-06-10T09:02:38;92458.88;;;23.80;61.38
3250;BME280;1637;42.020;23.992;2023-06-10T09:05:08;92467.88;;;23.97;62.66
3250;BME280;1637;42.020;23.992;2023-06-10T09:07:35;92478.19;;;24.75;61.72
3250;BME280;1637;42.020;23.992;2023-06-10T09:10:03;92459.09;;;23.66;60.09
3250;BME280;1637;42.020;23.992;2023-06-10T09:12:32;92464.28;;;23.10;62.00
3250;BME280;1637;42.020;23.992;2023-06-10T09:15:00;92466.50;;;22.74;63.87
3250;BME280;1637;42.020;23.992;2023-06-10T09:17:27;92473.72;;;22.14;65.85
3250;BME280;1637;42.020;23.992;2023-06-10T09:19:54;92466.84;;;21.99;67.63
3250;BME280;1637;42.020;23.992;2023-06-10T09:22:24;92462.47;;;22.07;68.22
3250;BME280;1637;42.020;23.992;2023-06-10T09:24:52;92470.25;;;22.14;67.02
3250;BME280;1637;42.020;23.992;2023-06-10T09:27:29;92464.75;;;23.08;65.59
3250;BME280;1637;42.020;23.992;2023-06-10T09:29:56;92465.31;;;23.66;63.25
3250;BME280;1637;42.020;23.992;2023-06-10T09:32:24;92467.38;;;23.88;62.60
3250;BME280;1637;42.020;23.992;2023-06-10T09:34:51;92466.16;;;24.00;61.24
3250;BME280;1637;42.020;23.992;2023-06-10T09:37:22;92467.97;;;24.42;60.49
3250;BME280;1637;42.020;23.992;2023-06-10T09:40:07;92466.72;;;25.10;60.18
3250;BME280;1637;42.020;23.992;2023-06-10T09:42:37;92467.47;;;24.94;60.51
3250;BME280;1637;42.020;23.992;2023-06-10T09:45:05;92465.00;;;24.62;60.39
3250;BME280;1637;42.020;23.992;2023-06-10T09:47:33;92464.47;;;24.25;60.76
3250;BME280;1637;42.020;23.992;2023-06-10T09:50:00;92461.22;;;25.16;59.89
3250;BME280;1637;42.020;23.992;2023-06-10T09:52:28;92455.97;;;25.23;57.85
3250;BME280;1637;42.020;23.992;2023-06-10T09:54:59;92458.31;;;25.77;55.92
3250;BME280;1637;42.020;23.992;2023-06-10T09:57:30;92456.63;;;26.10;53.64
3250;BME280;1637;42.020;23.992;2023-06-10T09:59:59;92453.81;;;25.74;57.06
3250;BME280;1637;42.020;23.992;2023-06-10T10:02:30;92460.31;;;25.77;59.46
3250;BME280;1637;42.020;23.992;2023-06-10T10:05:02;92467.38;;;25.39;60.95
3250;BME280;1637;42.020;23.992;2023-06-10T10:07:29;92470.22;;;24.83;61.39
3250;BME280;1637;42.020;23.992;2023-06-10T10:09:56;92462.22;;;24.23;61.69
3250;BME280;1637;42.020;23.992;2023-06-10T10:12:23;92465.47;;;24.33;60.54
3250;BME280;1637;42.020;23.992;2023-06-10T10:14:52;92463.38;;;23.94;59.76
3250;BME280;1637;42.020;23.992;2023-06-10T10:17:21;92459.75;;;24.59;60.77
3250;BME280;1637;42.020;23.992;2023-06-10T10:19:53;92463.22;;;25.10;58.48
3250;BME280;1637;42.020;23.992;2023-06-10T10:22:25;92429.66;;;24.42;58.51
3250;BME280;1637;42.020;23.992;2023-06-10T10:24:55;92460.00;;;24.61;58.69
3250;BME280;1637;42.020;23.992;2023-06-10T10:27:27;92445.75;;;23.90;61.57
3250;BME280;1637;42.020;23.992;2023-06-10T10:29:58;92452.28;;;24.37;61.74
3250;BME280;1637;42.020;23.992;2023-06-10T10:32:30;92447.06;;;24.45;60.37
3250;BME280;1637;42.020;23.992;2023-06-10T10:35:06;92435.09;;;24.09;61.42
3250;BME280;1637;42.020;23.992;2023-06-10T10:37:34;92438.28;;;24.02;59.70
3250;BME280;1637;42.020;23.992;2023-06-10T10:40:02;92415.47;;;24.49;62.07
3250;BME280;1637;42.020;23.992;2023-06-10T10:42:30;92418.66;;;24.76;60.59
3250;BME280;1637;42.020;23.992;2023-06-10T10:44:59;92410.69;;;25.00;60.57
3250;BME280;1637;42.020;23.992;2023-06-10T10:47:27;92419.16;;;25.02;59.77
3250;BME280;1637;42.020;23.992;2023-06-10T10:49:55;92414.66;;;24.99;59.56
3250;BME280;1637;42.020;23.992;2023-06-10T10:52:24;92421.66;;;24.83;59.94
3250;BME280;1637;42.020;23.992;2023-06-10T10:54:53;92422.19;;;24.26;61.74
3250;BME280;1637;42.020;23.992;2023-06-10T10:57:21;92426.66;;;24.29;60.24
3250;BME280;1637;42.020;23.992;2023-06-10T10:59:54;92417.66;;;24.12;61.84
3250;BME280;1637;42.020;23.992;2023-06-10T11:02:41;92420.63;;;23.86;63.19
3250;BME280;1637;42.020;23.992;2023-06-10T11:05:10;92416.94;;;24.22;62.47
3250;BME280;1637;42.020;23.992;2023-06-10T11:07:37;92410.72;;;24.66;61.04
3250;BME280;1637;42.020;23.992;2023-06-10T11:10:07;92385.31;;;24.66;57.92
3250;BME280;1637;42.020;23.992;2023-06-10T11:12:47;92416.16;;;24.83;58.91
3250;BME280;1637;42.020;23.992;2023-06-10T11:15:19;92402.38;;;25.22;57.70
3250;BME280;1637;42.020;23.992;2023-06-10T11:18:20;92406.28;;;25.49;56.64
3250;BME280;1637;42.020;23.992;2023-06-10T11:21:00;92402.91;;;25.15;57.31
3250;BME280;1637;42.020;23.992;2023-06-10T11:23:37;92392.75;;;24.82;56.69
3250;BME280;1637;42.020;23.992;2023-06-10T11:26:18;92401.22;;;25.01;56.54
3250;BME280;1637;42.020;23.992;2023-06-10T11:29:09;92421.66;;;24.89;55.00
3250;BME280;1637;42.020;23.992;2023-06-10T11:31:53;92405.47;;;24.85;54.11
3250;BME280;1637;42.020;23.992;2023-06-10T11:34:25;92397.03;;;24.66;52.80
3250;BME280;1637;42.020;23.992;2023-06-10T11:36:53;92395.75;;;24.90;53.33
3250;BME280;1637;42.020;23.992;2023-06-10T11:39:20;92394.50;;;24.96;52.90
3250;BME280;1637;42.020;23.992;2023-06-10T11:41:50;92385.34;;;24.44;54.64
3250;BME280;1637;42.020;23.992;2023-06-10T11:44:18;92389.56;;;24.67;53.91
3250;BME280;1637;42.020;23.992;2023-06-10T11:46:44;92386.03;;;24.78;55.50
3250;BME280;1637;42.020;23.992;2023-06-10T11:49:11;92382.53;;;24.99;55.89
3250;BME280;1637;42.020;23.992;2023-06-10T11:51:41;92392.53;;;24.58;56.39
3250;BME280;1637;42.020;23.992;2023-06-10T11:54:14;92381.34;;;24.67;56.33
3250;BME280;1637;42.020;23.992;2023-06-10T11:56:42;92395.97;;;25.14;56.64
3250;BME280;1637;42.020;23.992;2023-06-10T11:59:09;92382.03;;;25.01;56.64
3250;BME280;1637;42.020;23.992;2023-06-10T12:01:37;92383.19;;;25.33;55.30
3250;BME280;1637;42.020;23.992;2023-06-10T12:04:06;92385.16;;;25.33;54.69
3250;BME280;1637;42.020;23.992;2023-06-10T12:06:43;92375.84;;;24.78;55.83
3250;BME280;1637;42.020;23.992;2023-06-10T12:09:17;92380.81;;;24.74;56.38
3250;BME280;1637;42.020;23.992;2023-06-10T12:11:44;92353.25;;;24.33;56.25
3250;BME280;1637;42.020;23.992;2023-06-10T12:14:11;92371.31;;;25.03;55.00
3250;BME280;1637;42.020;23.992;2023-06-10T12:16:38;92360.72;;;24.38;56.94
3250;BME280;1637;42.020;23.992;2023-06-10T12:19:05;92374.91;;;24.48;56.75
3250;BME280;1637;42.020;23.992;2023-06-10T12:21:36;92372.66;;;24.35;56.90
3250;BME280;1637;42.020;23.992;2023-06-10T12:24:07;92371.38;;;24.70;55.30
3250;BME280;1637;42.020;23.992;2023-06-10T12:26:39;92374.63;;;24.68;53.76
3250;BME280;1637;42.020;23.992;2023-06-10T12:29:19;92373.81;;;24.90;55.21
3250;BME280;1637;42.020;23.992;2023-06-10T12:31:55;92374.31;;;24.94;53.80
3250;BME280;1637;42.020;23.992;2023-06-10T12:34:36;92366.72;;;25.33;53.90
3250;BME280;1637;42.020;23.992;2023-06-10T12:37:04;92357.25;;;25.34;52.72
3250;BME280;1637;42.020;23.992;2023-06-10T12:39:33;92362.28;;;25.19;54.68
3250;BME280;1637;42.020;23.992;2023-06-10T12:42:00;92367.84;;;24.86;53.71
3250;BME280;1637;42.020;23.992;2023-06-10T12:44:34;92353.97;;;24.61;55.73
3250;BME280;1637;42.020;23.992;2023-06-10T12:47:07;92355.47;;;25.37;54.20
3250;BME280;1637;42.020;23.992;2023-06-10T12:49:35;92348.97;;;25.46;52.56
3250;BME280;1637;42.020;23.992;2023-06-10T12:52:02;92346.28;;;25.34;54.13
3250;BME280;1637;42.020;23.992;2023-06-10T12:54:29;92347.56;;;25.22;53.29
3250;BME280;1637;42.020;23.992;2023-06-10T12:56:57;92354.41;;;24.93;53.13
3250;BME280;1637;42.020;23.992;2023-06-10T12:59:25;92347.47;;;24.64;54.64
3250;BME280;1637;42.020;23.992;2023-06-10T13:01:54;92315.91;;;24.36;53.25
3250;BME280;1637;42.020;23.992;2023-06-10T13:04:21;92344.25;;;24.72;54.36
3250;BME280;1637;42.020;23.992;2023-06-10T13:06:48;92337.53;;;24.61;55.22
3250;BME280;1637;42.020;23.992;2023-06-10T13:09:15;92334.34;;;24.41;56.25
3250;BME280;1637;42.020;23.992;2023-06-10T13:11:42;92316.41;;;24.45;56.40
3250;BME280;1637;42.020;23.992;2023-06-10T13:14:11;92332.25;;;24.80;55.85